sensor_id;sensor_type;location;lat;lon;timestamp;P1;durP1;ratioP1;P2;durP2;ratioP2
73107;SDS011;61559;50.476;15.588;2023-02-08T00:01:45;46.40;;;17.20;;
73107;SDS011;61559;50.476;15.588;2023-02-08T00:04:16;44.50;;;15.60;;
73107;SDS011;61559;50.476;15.588;2023-02-08T00:06:47;41.90;;;13.90;;
73107;SDS011;61559;50.476;15.588;2023-02-08T00:09:18;39.60;;;14.30;;
73107;SDS011;61559;50.476;15.588;2023-02-08T00:11:49;36.70;;;14.30;;
73107;SDS011;61559;50.476;15.588;2023-02-08T02:17:41;32.40;;;11.90;;
73107;SDS011;61559;50.476;15.588;2023-02-08T02:23:00;33.70;;;11.40;;
73107;SDS011;61559;50.476;15.588;2023-02-08T02:32:05;21.00;;;10.20;;
73107;SDS011;61559;50.476;15.588;2023-02-08T02:34:45;24.60;;;9.60;;
73107;SDS011;61559;50.476;15.588;2023-02-08T02:37:28;24.70;;;9.90;;
73107;SDS011;61559;50.476;15.588;2023-02-08T02:40:13;28.80;;;10.00;;
73107;SDS011;61559;50.476;15.588;2023-02-08T02:42:53;24.80;;;9.30;;
73107;SDS011;61559;50.476;15.588;2023-02-08T02:45:54;23.10;;;9.20;;
73107;SDS011;61559;50.476;15.588;2023-02-08T02:48:34;34.80;;;12.90;;
73107;SDS011;61559;50.476;15.588;2023-02-08T02:51:11;35.50;;;13.90;;
73107;SDS011;61559;50.476;15.588;2023-02-08T02:53:46;29.00;;;13.10;;
73107;SDS011;61559;50.476;15.588;2023-02-08T02:56:23;36.80;;;13.00;;
73107;SDS011;61559;50.476;15.588;2023-02-08T02:59:00;31.10;;;12.30;;
73107;SDS011;61559;50.476;15.588;2023-02-08T03:01:34;31.50;;;12.00;;
73107;SDS011;61559;50.476;15.588;2023-02-08T03:04:12;31.70;;;12.40;;
73107;SDS011;61559;50.476;15.588;2023-02-08T03:06:50;26.30;;;11.70;;
73107;SDS011;61559;50.476;15.588;2023-02-08T03:09:34;21.20;;;10.00;;
73107;SDS011;61559;50.476;15.588;2023-02-08T03:12:21;24.00;;;9.80;;
73107;SDS011;61559;50.476;15.588;2023-02-08T03:15:00;27.70;;;10.60;;
73107;SDS011;61559;50.476;15.588;2023-02-08T03:17:45;26.40;;;8.90;;
73107;SDS011;61559;50.476;15.588;2023-02-08T03:20:28;24.60;;;10.00;;
73107;SDS011;61559;50.476;15.588;2023-02-08T03:23:05;31.30;;;12.20;;
73107;SDS011;61559;50.476;15.588;2023-02-08T03:25:44;29.00;;;11.90;;
73107;SDS011;61559;50.476;15.588;2023-02-08T03:28:22;27.10;;;10.40;;
73107;SDS011;61559;50.476;15.588;2023-02-08T03:31:02;29.80;;;11.50;;
73107;SDS011;61559;50.476;15.588;2023-02-08T03:33:41;25.40;;;10.80;;
73107;SDS011;61559;50.476;15.588;2023-02-08T03:36:20;26.00;;;10.50;;
73107;SDS011;61559;50.476;15.588;2023-02-08T03:38:55;24.60;;;9.10;;
73107;SDS011;61559;50.476;15.588;2023-02-08T03:41:29;29.70;;;10.60;;
73107;SDS011;61559;50.476;15.588;2023-02-08T03:44:05;27.00;;;11.10;;
73107;SDS011;61559;50.476;15.588;2023-02-08T03:46:40;20.80;;;10.00;;
73107;SDS011;61559;50.476;15.588;2023-02-08T03:49:17;26.70;;;10.70;;
73107;SDS011;61559;50.476;15.588;2023-02-08T03:51:51;28.70;;;11.40;;
73107;SDS011;61559;50.476;15.588;2023-02-08T03:54:26;26.40;;;11.00;;
73107;SDS011;61559;50.476;15.588;2023-02-08T03:57:04;25.20;;;10.80;;
73107;SDS011;61559;50.476;15.588;2023-02-08T03:59:40;25.30;;;11.10;;
73107;SDS011;61559;50.476;15.588;2023-02-08T04:02:15;24.70;;;9.90;;
73107;SDS011;61559;50.476;15.588;2023-02-08T04:04:49;23.30;;;10.30;;
73107;SDS011;61559;50.476;15.588;2023-02-08T04:10:58;18.70;;;8.70;;
73107;SDS011;61559;50.476;15.588;2023-02-08T04:13:29;19.70;;;8.80;;
73107;SDS011;61559;50.476;15.588;2023-02-08T04:16:00;24.40;;;9.90;;
73107;SDS011;61559;50.476;15.588;2023-02-08T04:18:31;22.30;;;9.20;;
73107;SDS011;61559;50.476;15.588;2023-02-08T04:21:02;23.40;;;9.80;;
73107;SDS011;61559;50.476;15.588;2023-02-08T04:23:34;21.70;;;9.80;;
73107;SDS011;61559;50.476;15.588;2023-02-08T04:26:05;27.80;;;10.40;;
73107;SDS011;61559;50.476;15.588;2023-02-08T04:28:37;24.10;;;8.50;;
73107;SDS011;61559;50.476;15.588;2023-02-08T04:31:08;23.30;;;8.80;;
73107;SDS011;61559;50.476;15.588;2023-02-08T04:33:39;21.60;;;8.90;;
73107;SDS011;61559;50.476;15.588;2023-02-08T04:36:10;18.70;;;8.40;;
73107;SDS011;61559;50.476;15.588;2023-02-08T04:38:41;18.90;;;7.80;;
73107;SDS011;61559;50.476;15.588;2023-02-08T04:41:12;22.00;;;8.80;;
73107;SDS011;61559;50.476;15.588;2023-02-08T04:43:43;31.80;;;16.00;;
73107;SDS011;61559;50.476;15.588;2023-02-08T04:46:15;32.60;;;17.50;;
73107;SDS011;61559;50.476;15.588;2023-02-08T04:48:46;32.10;;;11.80;;
73107;SDS011;61559;50.476;15.588;2023-02-08T04:51:17;26.10;;;9.50;;
73107;SDS011;61559;50.476;15.588;2023-02-08T04:53:48;22.30;;;9.60;;
73107;SDS011;61559;50.476;15.588;2023-02-08T04:56:20;23.80;;;9.40;;
73107;SDS011;61559;50.476;15.588;2023-02-08T04:58:51;18.70;;;9.10;;
73107;SDS011;61559;50.476;15.588;2023-02-08T05:01:22;23.20;;;10.20;;
73107;SDS011;61559;50.476;15.588;2023-02-08T05:03:53;24.00;;;10.00;;
73107;SDS011;61559;50.476;15.588;2023-02-08T05:06:24;28.10;;;10.40;;
73107;SDS011;61559;50.476;15.588;2023-02-08T05:08:55;25.40;;;10.20;;
73107;SDS011;61559;50.476;15.588;2023-02-08T05:11:26;23.20;;;8.90;;
73107;SDS011;61559;50.476;15.588;2023-02-08T05:13:57;24.90;;;10.30;;
73107;SDS011;61559;50.476;15.588;2023-02-08T05:16:28;23.70;;;9.30;;
73107;SDS011;61559;50.476;15.588;2023-02-08T05:19:00;25.80;;;10.50;;
73107;SDS011;61559;50.476;15.588;2023-02-08T05:21:31;23.90;;;9.80;;
73107;SDS011;61559;50.476;15.588;2023-02-08T05:24:02;23.20;;;10.20;;
73107;SDS011;61559;50.476;15.588;2023-02-08T05:26:34;24.80;;;10.50;;
73107;SDS011;61559;50.476;15.588;2023-02-08T05:29:05;22.60;;;9.50;;
73107;SDS011;61559;50.476;15.588;2023-02-08T05:31:36;23.80;;;10.20;;
73107;SDS011;61559;50.476;15.588;2023-02-08T05:34:07;24.50;;;10.20;;
73107;SDS011;61559;50.476;15.588;2023-02-08T05:36:39;19.60;;;9.00;;
73107;SDS011;61559;50.476;15.588;2023-02-08T05:39:10;22.50;;;9.50;;
73107;SDS011;61559;50.476;15.588;2023-02-08T05:41:41;24.80;;;9.10;;
73107;SDS011;61559;50.476;15.588;2023-02-08T05:44:12;20.50;;;9.00;;
73107;SDS011;61559;50.476;15.588;2023-02-08T05:46:43;25.90;;;9.90;;
73107;SDS011;61559;50.476;15.588;2023-02-08T05:49:14;20.70;;;9.00;;
73107;SDS011;61559;50.476;15.588;2023-02-08T05:51:45;26.20;;;9.70;;
73107;SDS011;61559;50.476;15.588;2023-02-08T05:56:47;20.90;;;8.90;;
73107;SDS011;61559;50.476;15.588;2023-02-08T05:59:18;16.30;;;7.80;;
73107;SDS011;61559;50.476;15.588;2023-02-08T06:01:49;20.30;;;8.20;;
73107;SDS011;61559;50.476;15.588;2023-02-08T06:04:20;20.30;;;8.30;;
73107;SDS011;61559;50.476;15.588;2023-02-08T06:06:51;18.30;;;7.10;;
73107;SDS011;61559;50.476;15.588;2023-02-08T06:09:22;14.50;;;6.70;;
73107;SDS011;61559;50.476;15.588;2023-02-08T06:11:53;12.90;;;5.80;;
73107;SDS011;61559;50.476;15.588;2023-02-08T06:14:24;22.80;;;7.60;;
73107;SDS011;61559;50.476;15.588;2023-02-08T06:16:55;20.90;;;8.20;;
73107;SDS011;61559;50.476;15.588;2023-02-08T06:19:27;19.20;;;8.00;;
73107;SDS011;61559;50.476;15.588;2023-02-08T06:21:58;21.90;;;8.70;;
73107;SDS011;61559;50.476;15.588;2023-02-08T06:24:29;24.20;;;8.50;;
73107;SDS011;61559;50.476;15.588;2023-02-08T06:27:00;22.00;;;8.80;;
73107;SDS011;61559;50.476;15.588;2023-02-08T06:29:31;22.10;;;8.00;;
73107;SDS011;61559;50.476;15.588;2023-02-08T06:32:02;22.60;;;9.10;;
73107;SDS011;61559;50.476;15.588;2023-02-08T06:34:33;21.30;;;8.10;;
73107;SDS011;61559;50.476;15.588;2023-02-08T06:37:04;19.50;;;7.80;;
73107;SDS011;61559;50.476;15.588;2023-02-08T06:39:35;23.60;;;8.70;;
73107;SDS011;61559;50.476;15.588;2023-02-08T06:42:06;18.70;;;6.90;;
73107;SDS011;61559;50.476;15.588;2023-02-08T06:44:38;18.90;;;7.70;;
73107;SDS011;61559;50.476;15.588;2023-02-08T06:47:21;18.00;;;7.80;;
73107;SDS011;61559;50.476;15.588;2023-02-08T06:49:53;23.00;;;8.30;;
73107;SDS011;61559;50.476;15.588;2023-02-08T06:52:24;21.90;;;8.90;;
73107;SDS011;61559;50.476;15.588;2023-02-08T06:54:55;21.00;;;9.50;;
73107;SDS011;61559;50.476;15.588;2023-02-08T06:57:27;18.70;;;8.40;;
73107;SDS011;61559;50.476;15.588;2023-02-08T06:59:58;18.90;;;8.00;;
73107;SDS011;61559;50.476;15.588;2023-02-08T07:02:29;19.50;;;7.20;;
73107;SDS011;61559;50.476;15.588;2023-02-08T07:05:00;18.40;;;7.50;;
73107;SDS011;61559;50.476;15.588;2023-02-08T07:07:32;18.80;;;8.40;;
73107;SDS011;61559;50.476;15.588;2023-02-08T07:10:03;31.60;;;10.00;;
73107;SDS011;61559;50.476;15.588;2023-02-08T07:12:35;28.10;;;10.50;;
73107;SDS011;61559;50.476;15.588;2023-02-08T07:17:37;25.30;;;10.40;;
73107;SDS011;61559;50.476;15.588;2023-02-08T07:20:09;22.00;;;9.00;;
73107;SDS011;61559;50.476;15.588;2023-02-08T07:22:40;17.40;;;6.40;;
73107;SDS011;61559;50.476;15.588;2023-02-08T07:25:11;20.30;;;8.70;;
73107;SDS011;61559;50.476;15.588;2023-02-08T07:27:42;15.80;;;7.40;;
73107;SDS011;61559;50.476;15.588;2023-02-08T07:30:13;23.30;;;9.30;;
73107;SDS011;61559;50.476;15.588;2023-02-08T07:35:15;16.00;;;7.20;;
73107;SDS011;61559;50.476;15.588;2023-02-08T07:37:46;19.60;;;7.90;;
73107;SDS011;61559;50.476;15.588;2023-02-08T07:40:17;23.70;;;9.80;;
73107;SDS011;61559;50.476;15.588;2023-02-08T07:42:48;20.40;;;9.10;;
73107;SDS011;61559;50.476;15.588;2023-02-08T07:45:19;26.70;;;11.60;;
73107;SDS011;61559;50.476;15.588;2023-02-08T07:47:50;25.50;;;11.80;;
73107;SDS011;61559;50.476;15.588;2023-02-08T07:50:21;22.20;;;8.40;;
73107;SDS011;61559;50.476;15.588;2023-02-08T07:52:52;23.80;;;9.20;;
73107;SDS011;61559;50.476;15.588;2023-02-08T07:55:23;22.20;;;10.80;;
73107;SDS011;61559;50.476;15.588;2023-02-08T07:57:55;28.10;;;12.40;;
73107;SDS011;61559;50.476;15.588;2023-02-08T08:00:26;30.90;;;12.00;;
73107;SDS011;61559;50.476;15.588;2023-02-08T08:02:57;39.60;;;16.90;;
73107;SDS011;61559;50.476;15.588;2023-02-08T08:05:28;26.40;;;11.70;;
73107;SDS011;61559;50.476;15.588;2023-02-08T08:08:00;29.30;;;11.00;;
73107;SDS011;61559;50.476;15.588;2023-02-08T08:10:30;28.20;;;11.50;;
73107;SDS011;61559;50.476;15.588;2023-02-08T08:13:02;37.30;;;15.00;;
73107;SDS011;61559;50.476;15.588;2023-02-08T08:15:33;36.00;;;14.50;;
73107;SDS011;61559;50.476;15.588;2023-02-08T08:18:04;20.70;;;8.40;;
73107;SDS011;61559;50.476;15.588;2023-02-08T08:20:36;38.20;;;14.00;;
73107;SDS011;61559;50.476;15.588;2023-02-08T08:23:07;28.20;;;10.70;;
73107;SDS011;61559;50.476;15.588;2023-02-08T08:25:38;43.20;;;16.50;;
73107;SDS011;61559;50.476;15.588;2023-02-08T08:28:09;31.50;;;12.00;;
73107;SDS011;61559;50.476;15.588;2023-02-08T08:33:12;28.90;;;12.40;;
73107;SDS011;61559;50.476;15.588;2023-02-08T08:35:43;18.60;;;8.90;;
73107;SDS011;61559;50.476;15.588;2023-02-08T08:38:14;17.00;;;5.90;;
73107;SDS011;61559;50.476;15.588;2023-02-08T08:40:47;19.40;;;9.40;;
73107;SDS011;61559;50.476;15.588;2023-02-08T08:43:18;14.40;;;5.70;;
73107;SDS011;61559;50.476;15.588;2023-02-08T08:45:49;17.90;;;8.20;;
73107;SDS011;61559;50.476;15.588;2023-02-08T08:48:20;16.40;;;6.90;;
73107;SDS011;61559;50.476;15.588;2023-02-08T08:50:52;18.20;;;7.80;;
73107;SDS011;61559;50.476;15.588;2023-02-08T08:53:23;17.80;;;7.50;;
73107;SDS011;61559;50.476;15.588;2023-02-08T08:55:55;21.70;;;8.60;;
73107;SDS011;61559;50.476;15.588;2023-02-08T08:58:26;18.80;;;7.60;;
73107;SDS011;61559;50.476;15.588;2023-02-08T09:00:57;20.50;;;9.90;;
73107;SDS011;61559;50.476;15.588;2023-02-08T09:03:28;19.50;;;7.80;;
73107;SDS011;61559;50.476;15.588;2023-02-08T09:06:00;14.30;;;7.10;;
73107;SDS011;61559;50.476;15.588;2023-02-08T09:08:31;16.20;;;7.70;;
73107;SDS011;61559;50.476;15.588;2023-02-08T09:11:06;18.90;;;8.10;;
73107;SDS011;61559;50.476;15.588;2023-02-08T09:13:38;12.80;;;5.80;;
73107;SDS011;61559;50.476;15.588;2023-02-08T09:16:11;14.50;;;6.70;;
73107;SDS011;61559;50.476;15.588;2023-02-08T09:18:43;19.40;;;7.40;;
73107;SDS011;61559;50.476;15.588;2023-02-08T09:21:15;17.00;;;7.30;;
73107;SDS011;61559;50.476;15.588;2023-02-08T09:23:48;18.50;;;8.30;;
73107;SDS011;61559;50.476;15.588;2023-02-08T09:26:19;15.30;;;7.50;;
73107;SDS011;61559;50.476;15.588;2023-02-08T09:28:51;16.80;;;7.30;;
73107;SDS011;61559;50.476;15.588;2023-02-08T09:31:23;17.10;;;7.40;;
73107;SDS011;61559;50.476;15.588;2023-02-08T09:33:56;20.20;;;8.40;;
73107;SDS011;61559;50.476;15.588;2023-02-08T09:36:30;18.40;;;8.30;;
73107;SDS011;61559;50.476;15.588;2023-02-08T09:39:04;20.10;;;8.40;;
73107;SDS011;61559;50.476;15.588;2023-02-08T09:41:43;15.60;;;6.40;;
73107;SDS011;61559;50.476;15.588;2023-02-08T09:44:27;14.90;;;6.80;;
73107;SDS011;61559;50.476;15.588;2023-02-08T09:47:08;15.50;;;6.10;;
73107;SDS011;61559;50.476;15.588;2023-02-08T09:49:47;48.50;;;16.30;;
73107;SDS011;61559;50.476;15.588;2023-02-08T09:52:26;98.90;;;34.40;;
73107;SDS011;61559;50.476;15.588;2023-02-08T09:55:04;40.80;;;14.20;;
73107;SDS011;61559;50.476;15.588;2023-02-08T09:57:49;24.70;;;10.00;;
73107;SDS011;61559;50.476;15.588;2023-02-08T10:00:29;55.40;;;21.10;;
73107;SDS011;61559;50.476;15.588;2023-02-08T10:03:03;17.80;;;7.80;;
73107;SDS011;61559;50.476;15.588;2023-02-08T10:05:47;21.50;;;10.40;;
73107;SDS011;61559;50.476;15.588;2023-02-08T10:08:18;19.30;;;8.60;;
73107;SDS011;61559;50.476;15.588;2023-02-08T10:11:05;19.00;;;7.90;;
73107;SDS011;61559;50.476;15.588;2023-02-08T10:13:52;29.80;;;11.90;;
73107;SDS011;61559;50.476;15.588;2023-02-08T10:16:37;18.70;;;8.40;;
73107;SDS011;61559;50.476;15.588;2023-02-08T10:19:23;22.40;;;8.90;;
73107;SDS011;61559;50.476;15.588;2023-02-08T10:22:11;40.10;;;15.60;;
73107;SDS011;61559;50.476;15.588;2023-02-08T10:24:56;62.20;;;23.50;;
73107;SDS011;61559;50.476;15.588;2023-02-08T10:27:43;95.50;;;33.30;;
73107;SDS011;61559;50.476;15.588;2023-02-08T10:30:28;101.80;;;32.90;;
73107;SDS011;61559;50.476;15.588;2023-02-08T10:33:09;123.70;;;40.10;;
73107;SDS011;61559;50.476;15.588;2023-02-08T10:35:45;38.30;;;15.00;;
73107;SDS011;61559;50.476;15.588;2023-02-08T10:38:23;65.60;;;23.10;;
73107;SDS011;61559;50.476;15.588;2023-02-08T10:41:14;76.30;;;28.50;;
73107;SDS011;61559;50.476;15.588;2023-02-08T10:43:50;33.80;;;13.00;;
73107;SDS011;61559;50.476;15.588;2023-02-08T10:46:29;17.00;;;7.30;;
73107;SDS011;61559;50.476;15.588;2023-02-08T10:49:07;21.90;;;9.50;;
73107;SDS011;61559;50.476;15.588;2023-02-08T10:51:45;16.60;;;6.60;;
73107;SDS011;61559;50.476;15.588;2023-02-08T10:54:17;56.20;;;22.80;;
73107;SDS011;61559;50.476;15.588;2023-02-08T10:56:50;26.20;;;11.00;;
73107;SDS011;61559;50.476;15.588;2023-02-08T10:59:25;12.20;;;4.50;;
73107;SDS011;61559;50.476;15.588;2023-02-08T11:01:59;11.00;;;4.60;;
73107;SDS011;61559;50.476;15.588;2023-02-08T11:04:30;22.80;;;11.90;;
73107;SDS011;61559;50.476;15.588;2023-02-08T11:07:01;17.00;;;6.40;;
73107;SDS011;61559;50.476;15.588;2023-02-08T11:09:49;73.10;;;27.70;;
73107;SDS011;61559;50.476;15.588;2023-02-08T11:14:51;7.10;;;3.70;;
73107;SDS011;61559;50.476;15.588;2023-02-08T11:17:23;8.70;;;4.50;;
73107;SDS011;61559;50.476;15.588;2023-02-08T11:19:57;9.20;;;4.60;;
73107;SDS011;61559;50.476;15.588;2023-02-08T11:22:29;8.00;;;3.60;;
73107;SDS011;61559;50.476;15.588;2023-02-08T11:25:03;10.20;;;4.40;;
73107;SDS011;61559;50.476;15.588;2023-02-08T11:27:36;5.90;;;2.70;;
73107;SDS011;61559;50.476;15.588;2023-02-08T11:30:20;11.50;;;4.50;;
73107;SDS011;61559;50.476;15.588;2023-02-08T11:36:01;8.90;;;3.00;;
73107;SDS011;61559;50.476;15.588;2023-02-08T11:38:35;10.70;;;4.80;;
73107;SDS011;61559;50.476;15.588;2023-02-08T11:41:14;8.40;;;3.70;;
73107;SDS011;61559;50.476;15.588;2023-02-08T11:46:27;4.90;;;2.50;;
73107;SDS011;61559;50.476;15.588;2023-02-08T11:49:00;4.10;;;2.40;;
73107;SDS011;61559;50.476;15.588;2023-02-08T11:51:33;7.10;;;3.10;;
73107;SDS011;61559;50.476;15.588;2023-02-08T11:54:09;5.10;;;2.20;;
73107;SDS011;61559;50.476;15.588;2023-02-08T11:57:09;8.50;;;2.90;;
73107;SDS011;61559;50.476;15.588;2023-02-08T11:59:43;8.40;;;3.20;;
73107;SDS011;61559;50.476;15.588;2023-02-08T12:02:21;5.00;;;2.50;;
73107;SDS011;61559;50.476;15.588;2023-02-08T12:04:57;8.20;;;2.90;;
73107;SDS011;61559;50.476;15.588;2023-02-08T12:10:09;5.10;;;2.70;;
73107;SDS011;61559;50.476;15.588;2023-02-08T12:12:54;4.30;;;2.60;;
73107;SDS011;61559;50.476;15.588;2023-02-08T12:15:37;4.90;;;2.40;;
73107;SDS011;61559;50.476;15.588;2023-02-08T12:18:34;7.60;;;3.10;;
73107;SDS011;61559;50.476;15.588;2023-02-08T12:21:19;7.60;;;3.80;;
73107;SDS011;61559;50.476;15.588;2023-02-08T12:23:53;7.00;;;3.00;;
73107;SDS011;61559;50.476;15.588;2023-02-08T12:26:35;6.70;;;3.40;;
73107;SDS011;61559;50.476;15.588;2023-02-08T12:29:24;6.70;;;2.80;;
73107;SDS011;61559;50.476;15.588;2023-02-08T12:32:28;5.40;;;2.80;;
73107;SDS011;61559;50.476;15.588;2023-02-08T12:35:23;5.90;;;3.40;;
73107;SDS011;61559;50.476;15.588;2023-02-08T12:38:28;6.80;;;3.40;;
73107;SDS011;61559;50.476;15.588;2023-02-08T12:41:31;6.20;;;2.80;;
73107;SDS011;61559;50.476;15.588;2023-02-08T12:44:09;6.80;;;3.20;;
73107;SDS011;61559;50.476;15.588;2023-02-08T12:46:57;5.90;;;3.30;;
73107;SDS011;61559;50.476;15.588;2023-02-08T12:49:43;9.70;;;4.20;;
73107;SDS011;61559;50.476;15.588;2023-02-08T12:52:26;10.20;;;4.00;;
73107;SDS011;61559;50.476;15.588;2023-02-08T12:55:08;5.50;;;2.80;;
73107;SDS011;61559;50.476;15.588;2023-02-08T12:57:45;8.40;;;3.40;;
73107;SDS011;61559;50.476;15.588;2023-02-08T13:00:20;10.00;;;4.10;;
73107;SDS011;61559;50.476;15.588;2023-02-08T13:02:57;8.00;;;3.80;;
73107;SDS011;61559;50.476;15.588;2023-02-08T13:05:37;7.90;;;3.70;;
73107;SDS011;61559;50.476;15.588;2023-02-08T13:08:25;9.00;;;4.20;;
73107;SDS011;61559;50.476;15.588;2023-02-08T13:11:02;7.00;;;3.90;;
73107;SDS011;61559;50.476;15.588;2023-02-08T13:13:50;9.90;;;4.50;;
73107;SDS011;61559;50.476;15.588;2023-02-08T13:16:26;12.30;;;4.90;;
73107;SDS011;61559;50.476;15.588;2023-02-08T13:21:57;9.40;;;4.10;;
73107;SDS011;61559;50.476;15.588;2023-02-08T13:24:30;7.80;;;4.10;;
73107;SDS011;61559;50.476;15.588;2023-02-08T13:27:05;8.70;;;4.00;;
73107;SDS011;61559;50.476;15.588;2023-02-08T13:29:44;11.10;;;5.50;;
73107;SDS011;61559;50.476;15.588;2023-02-08T13:32:19;8.00;;;4.00;;
73107;SDS011;61559;50.476;15.588;2023-02-08T13:34:57;10.90;;;4.00;;
73107;SDS011;61559;50.476;15.588;2023-02-08T13:37:31;7.80;;;4.00;;
73107;SDS011;61559;50.476;15.588;2023-02-08T13:40:04;6.50;;;3.50;;
73107;SDS011;61559;50.476;15.588;2023-02-08T13:42:47;9.10;;;3.80;;
73107;SDS011;61559;50.476;15.588;2023-02-08T13:45:24;9.40;;;3.40;;
73107;SDS011;61559;50.476;15.588;2023-02-08T13:47:59;7.90;;;3.90;;
73107;SDS011;61559;50.476;15.588;2023-02-08T13:50:43;12.20;;;5.00;;
73107;SDS011;61559;50.476;15.588;2023-02-08T13:55:55;5.60;;;3.10;;
73107;SDS011;61559;50.476;15.588;2023-02-08T13:58:33;11.00;;;4.60;;
73107;SDS011;61559;50.476;15.588;2023-02-08T14:01:26;10.30;;;4.30;;
73107;SDS011;61559;50.476;15.588;2023-02-08T14:07:01;8.60;;;4.00;;
73107;SDS011;61559;50.476;15.588;2023-02-08T14:09:46;9.50;;;4.10;;
73107;SDS011;61559;50.476;15.588;2023-02-08T14:12:29;8.60;;;4.30;;
73107;SDS011;61559;50.476;15.588;2023-02-08T14:18:14;9.90;;;4.80;;
73107;SDS011;61559;50.476;15.588;2023-02-08T14:21:03;7.70;;;4.30;;
73107;SDS011;61559;50.476;15.588;2023-02-08T14:23:36;8.80;;;4.20;;
73107;SDS011;61559;50.476;15.588;2023-02-08T14:26:08;9.90;;;4.70;;
73107;SDS011;61559;50.476;15.588;2023-02-08T14:28:53;8.00;;;4.40;;
73107;SDS011;61559;50.476;15.588;2023-02-08T14:31:35;8.60;;;4.20;;
73107;SDS011;61559;50.476;15.588;2023-02-08T14:34:25;6.90;;;4.00;;
73107;SDS011;61559;50.476;15.588;2023-02-08T14:37:03;9.20;;;3.80;;
73107;SDS011;61559;50.476;15.588;2023-02-08T14:42:57;11.00;;;5.90;;
73107;SDS011;61559;50.476;15.588;2023-02-08T14:45:29;16.00;;;5.10;;
73107;SDS011;61559;50.476;15.588;2023-02-08T14:48:05;12.20;;;5.30;;
73107;SDS011;61559;50.476;15.588;2023-02-08T14:51:05;13.10;;;7.00;;
73107;SDS011;61559;50.476;15.588;2023-02-08T14:53:48;17.30;;;9.40;;
73107;SDS011;61559;50.476;15.588;2023-02-08T14:56:26;15.30;;;10.50;;
73107;SDS011;61559;50.476;15.588;2023-02-08T14:59:03;11.70;;;5.60;;
73107;SDS011;61559;50.476;15.588;2023-02-08T15:01:44;10.40;;;5.60;;
73107;SDS011;61559;50.476;15.588;2023-02-08T15:04:18;8.10;;;4.40;;
73107;SDS011;61559;50.476;15.588;2023-02-08T15:09:36;10.30;;;4.50;;
73107;SDS011;61559;50.476;15.588;2023-02-08T15:12:10;71.00;;;29.80;;
73107;SDS011;61559;50.476;15.588;2023-02-08T15:14:46;31.70;;;15.80;;
73107;SDS011;61559;50.476;15.588;2023-02-08T15:19:54;15.20;;;6.70;;
73107;SDS011;61559;50.476;15.588;2023-02-08T15:25:01;54.30;;;23.00;;
73107;SDS011;61559;50.476;15.588;2023-02-08T15:27:46;20.70;;;9.50;;
73107;SDS011;61559;50.476;15.588;2023-02-08T15:33:08;12.10;;;5.30;;
73107;SDS011;61559;50.476;15.588;2023-02-08T15:35:44;34.50;;;14.70;;
73107;SDS011;61559;50.476;15.588;2023-02-08T15:38:27;11.80;;;7.80;;
73107;SDS011;61559;50.476;15.588;2023-02-08T15:41:00;13.10;;;6.00;;
73107;SDS011;61559;50.476;15.588;2023-02-08T15:43:33;9.80;;;4.90;;
73107;SDS011;61559;50.476;15.588;2023-02-08T15:46:06;12.40;;;5.00;;
73107;SDS011;61559;50.476;15.588;2023-02-08T15:48:46;7.00;;;3.30;;
73107;SDS011;61559;50.476;15.588;2023-02-08T15:51:19;7.20;;;3.70;;
73107;SDS011;61559;50.476;15.588;2023-02-08T15:53:54;9.00;;;4.20;;
73107;SDS011;61559;50.476;15.588;2023-02-08T15:56:27;12.00;;;5.10;;
73107;SDS011;61559;50.476;15.588;2023-02-08T15:59:05;8.90;;;4.40;;
73107;SDS011;61559;50.476;15.588;2023-02-08T16:01:46;21.70;;;8.20;;
73107;SDS011;61559;50.476;15.588;2023-02-08T16:04:19;125.00;;;47.40;;
73107;SDS011;61559;50.476;15.588;2023-02-08T16:06:51;85.40;;;32.20;;
73107;SDS011;61559;50.476;15.588;2023-02-08T16:09:25;62.10;;;25.30;;
73107;SDS011;61559;50.476;15.588;2023-02-08T16:11:58;23.10;;;9.10;;
73107;SDS011;61559;50.476;15.588;2023-02-08T16:14:31;12.10;;;5.00;;
73107;SDS011;61559;50.476;15.588;2023-02-08T16:17:30;12.00;;;5.20;;
73107;SDS011;61559;50.476;15.588;2023-02-08T16:22:59;14.90;;;7.20;;
73107;SDS011;61559;50.476;15.588;2023-02-08T16:25:40;30.60;;;11.50;;
73107;SDS011;61559;50.476;15.588;2023-02-08T16:28:24;38.00;;;15.00;;
73107;SDS011;61559;50.476;15.588;2023-02-08T16:30:58;91.40;;;34.50;;
73107;SDS011;61559;50.476;15.588;2023-02-08T16:33:31;90.00;;;36.80;;
73107;SDS011;61559;50.476;15.588;2023-02-08T16:36:04;44.30;;;18.20;;
73107;SDS011;61559;50.476;15.588;2023-02-08T16:38:35;29.50;;;12.20;;
73107;SDS011;61559;50.476;15.588;2023-02-08T16:41:08;39.00;;;16.30;;
73107;SDS011;61559;50.476;15.588;2023-02-08T16:43:42;37.70;;;15.60;;
73107;SDS011;61559;50.476;15.588;2023-02-08T16:46:19;29.80;;;13.10;;
73107;SDS011;61559;50.476;15.588;2023-02-08T16:48:55;29.30;;;12.90;;
73107;SDS011;61559;50.476;15.588;2023-02-08T16:51:27;26.20;;;11.30;;
73107;SDS011;61559;50.476;15.588;2023-02-08T16:54:02;24.60;;;11.00;;
73107;SDS011;61559;50.476;15.588;2023-02-08T16:56:35;21.30;;;10.40;;
73107;SDS011;61559;50.476;15.588;2023-02-08T16:59:09;28.00;;;13.20;;
73107;SDS011;61559;50.476;15.588;2023-02-08T17:01:41;23.30;;;11.00;;
73107;SDS011;61559;50.476;15.588;2023-02-08T17:04:16;26.80;;;13.20;;
73107;SDS011;61559;50.476;15.588;2023-02-08T17:06:48;26.20;;;11.30;;
73107;SDS011;61559;50.476;15.588;2023-02-08T17:09:19;28.00;;;12.30;;
73107;SDS011;61559;50.476;15.588;2023-02-08T17:11:50;26.70;;;11.60;;
73107;SDS011;61559;50.476;15.588;2023-02-08T17:14:22;21.50;;;10.30;;
73107;SDS011;61559;50.476;15.588;2023-02-08T17:16:53;31.20;;;14.30;;
73107;SDS011;61559;50.476;15.588;2023-02-08T17:19:25;30.60;;;13.70;;
73107;SDS011;61559;50.476;15.588;2023-02-08T17:21:59;28.00;;;13.40;;
73107;SDS011;61559;50.476;15.588;2023-02-08T17:24:32;30.20;;;13.80;;
73107;SDS011;61559;50.476;15.588;2023-02-08T17:27:09;31.90;;;13.60;;
73107;SDS011;61559;50.476;15.588;2023-02-08T17:29:43;28.50;;;13.30;;
73107;SDS011;61559;50.476;15.588;2023-02-08T17:32:15;28.40;;;13.50;;
73107;SDS011;61559;50.476;15.588;2023-02-08T17:34:47;36.40;;;14.50;;
73107;SDS011;61559;50.476;15.588;2023-02-08T17:37:19;37.80;;;15.50;;
73107;SDS011;61559;50.476;15.588;2023-02-08T17:39:54;37.30;;;15.60;;
73107;SDS011;61559;50.476;15.588;2023-02-08T17:42:27;45.20;;;18.80;;
73107;SDS011;61559;50.476;15.588;2023-02-08T17:44:59;46.60;;;17.70;;
73107;SDS011;61559;50.476;15.588;2023-02-08T17:47:34;47.80;;;18.80;;
73107;SDS011;61559;50.476;15.588;2023-02-08T17:50:09;52.20;;;21.10;;
73107;SDS011;61559;50.476;15.588;2023-02-08T17:52:41;50.00;;;20.60;;
73107;SDS011;61559;50.476;15.588;2023-02-08T17:55:14;45.00;;;17.40;;
73107;SDS011;61559;50.476;15.588;2023-02-08T17:57:48;45.20;;;17.80;;
73107;SDS011;61559;50.476;15.588;2023-02-08T18:00:21;53.90;;;20.50;;
73107;SDS011;61559;50.476;15.588;2023-02-08T18:02:53;46.40;;;18.90;;
73107;SDS011;61559;50.476;15.588;2023-02-08T18:05:28;55.30;;;21.30;;
73107;SDS011;61559;50.476;15.588;2023-02-08T18:08:00;56.10;;;21.20;;
73107;SDS011;61559;50.476;15.588;2023-02-08T18:10:32;65.00;;;22.30;;
73107;SDS011;61559;50.476;15.588;2023-02-08T18:13:03;56.60;;;22.30;;